createdAt,value
2019-01-02T00:01:40.994Z,4.27
2019-01-02T00:04:09.855Z,4.97
2019-01-02T00:06:38.412Z,4.93
2019-01-02T00:09:07.369Z,5.13
2019-01-02T00:11:36.017Z,6.07
2019-01-02T00:14:04.659Z,4.83
2019-01-02T00:16:33.242Z,6.30
2019-01-02T00:19:01.825Z,4.20
2019-01-02T00:21:30.777Z,5.77
2019-01-02T00:23:59.372Z,5.70
2019-01-02T00:26:28.257Z,5.13
2019-01-02T00:28:56.837Z,5.30
2019-01-02T00:31:25.831Z,5.20
2019-01-02T00:33:54.414Z,5.20
2019-01-02T00:36:23.381Z,5.13
2019-01-02T00:38:51.965Z,6.60
2019-01-02T00:41:20.529Z,5.53
2019-01-02T00:43:49.189Z,4.77
2019-01-02T00:46:17.745Z,4.57
2019-01-02T00:48:46.333Z,5.00
2019-01-02T00:51:14.899Z,4.90
2019-01-02T00:53:43.503Z,5.20
2019-01-02T00:56:12.066Z,5.53
2019-01-02T00:58:40.661Z,4.67
2019-01-02T01:01:09.232Z,5.57
2019-01-02T01:03:37.812Z,5.20
2019-01-02T01:06:06.779Z,4.33
2019-01-02T01:08:35.345Z,5.23
2019-01-02T01:11:04.548Z,4.73
2019-01-02T01:13:33.202Z,4.67
2019-01-02T01:16:01.995Z,5.77
2019-01-02T01:18:30.556Z,6.90
2019-01-02T01:20:59.590Z,5.90
2019-01-02T01:23:28.145Z,5.53
2019-01-02T01:25:56.710Z,6.47
2019-01-02T01:28:25.485Z,5.50
2019-01-02T01:30:54.077Z,4.47
2019-01-02T01:33:22.849Z,5.10
2019-01-02T01:35:51.440Z,5.50
2019-01-02T01:38:20.001Z,5.77
2019-01-02T01:40:48.793Z,6.00
2019-01-02T01:43:17.424Z,5.17
2019-01-02T01:45:46.009Z,5.30
2019-01-02T01:48:14.575Z,4.57
2019-01-02T01:50:43.156Z,5.03
2019-01-02T01:53:12.036Z,5.90
2019-01-02T01:55:40.646Z,4.60
2019-01-02T01:58:09.235Z,5.33
2019-01-02T02:00:37.823Z,7.40
2019-01-02T02:03:06.376Z,4.87
2019-01-02T02:05:35.273Z,5.30
2019-01-02T02:08:03.836Z,6.17
2019-01-02T02:10:32.422Z,4.70
2019-01-02T02:13:01.317Z,4.80
2019-01-02T02:15:29.913Z,6.03
2019-01-02T02:17:58.790Z,6.33
2019-01-02T02:20:27.398Z,3.93
2019-01-02T02:22:55.967Z,5.87
2019-01-02T02:25:25.013Z,5.87
2019-01-02T02:27:53.598Z,4.73
2019-01-02T02:30:22.565Z,7.90
2019-01-02T02:32:51.141Z,5.13
2019-01-02T02:35:20.252Z,5.47
2019-01-02T02:37:48.888Z,5.67
2019-01-02T02:40:17.384Z,5.10
2019-01-02T02:42:46.062Z,4.60
2019-01-02T02:45:14.929Z,5.90
2019-01-02T02:47:43.885Z,5.73
2019-01-02T02:50:14.487Z,5.23
2019-01-02T02:52:43.068Z,5.07
2019-01-02T02:55:14.465Z,6.47
2019-01-02T02:57:43.053Z,4.53
2019-01-02T03:00:14.230Z,5.57
2019-01-02T03:02:42.886Z,4.93
2019-01-02T03:05:13.393Z,5.43
2019-01-02T03:07:42.274Z,5.90
2019-01-02T03:10:13.282Z,5.90
2019-01-02T03:12:42.237Z,5.60
2019-01-02T03:15:11.867Z,5.23
2019-01-02T03:17:40.445Z,5.33
2019-01-02T03:20:11.340Z,5.40
2019-01-02T03:22:40.303Z,5.87
2019-01-02T03:25:11.002Z,4.90
2019-01-02T03:27:39.886Z,5.83
2019-01-02T03:30:16.432Z,6.07
2019-01-02T03:32:45.397Z,5.03
2019-01-02T03:35:14.278Z,7.03
2019-01-02T03:37:42.829Z,5.90
2019-01-02T03:40:12.381Z,5.50
2019-01-02T03:42:41.009Z,5.40
2019-01-02T03:45:17.231Z,5.87
2019-01-02T03:47:45.887Z,6.60
2019-01-02T03:50:17.176Z,6.63
2019-01-02T03:52:45.770Z,6.50
2019-01-02T03:55:14.404Z,5.60
2019-01-02T03:57:42.959Z,6.13
2019-01-02T04:00:14.260Z,4.80
2019-01-02T04:02:42.825Z,5.57
2019-01-02T04:05:13.805Z,5.80
2019-01-02T04:07:44.408Z,6.13
2019-01-02T04:10:14.033Z,6.40
2019-01-02T04:12:42.557Z,4.77
2019-01-02T04:15:11.242Z,5.70
2019-01-02T04:17:39.802Z,6.77
2019-01-02T04:20:08.662Z,6.50
2019-01-02T04:22:37.257Z,6.60
2019-01-02T04:25:07.909Z,6.60
2019-01-02T04:27:36.537Z,6.53
2019-01-02T04:30:08.118Z,6.00
2019-01-02T04:32:36.681Z,6.03
2019-01-02T04:35:06.210Z,6.03
2019-01-02T04:37:34.776Z,6.73
2019-01-02T04:40:03.830Z,6.63
2019-01-02T04:42:32.396Z,6.87
2019-01-02T04:45:00.955Z,5.97
2019-01-02T04:47:29.534Z,6.63
2019-01-02T04:49:58.093Z,6.20
2019-01-02T04:52:26.605Z,6.90
2019-01-02T04:54:55.105Z,7.87
2019-01-02T04:57:23.641Z,5.70
2019-01-02T04:59:52.190Z,6.50
2019-01-02T05:02:20.782Z,5.97
2019-01-02T05:04:49.430Z,6.90
2019-01-02T05:07:17.959Z,6.43
2019-01-02T05:09:46.525Z,6.47
2019-01-02T05:12:15.124Z,6.37
2019-01-02T05:14:43.685Z,5.63
2019-01-02T05:17:12.286Z,5.67
2019-01-02T05:19:40.786Z,6.33
2019-01-02T05:22:09.371Z,6.03
2019-01-02T05:24:38.001Z,5.97
2019-01-02T05:27:06.593Z,6.13
2019-01-02T05:29:35.149Z,6.37
2019-01-02T05:32:03.762Z,5.97
2019-01-02T05:34:32.254Z,5.60
2019-01-02T05:37:00.833Z,5.57
2019-01-02T05:39:29.480Z,6.10
2019-01-02T05:41:58.042Z,7.10
2019-01-02T05:44:26.633Z,6.03
2019-01-02T05:46:55.215Z,4.93
2019-01-02T05:49:23.794Z,5.93
2019-01-02T05:51:52.348Z,5.60
2019-01-02T05:54:20.889Z,5.10
2019-01-02T05:56:49.463Z,6.00
2019-01-02T05:59:18.030Z,5.73
2019-01-02T06:01:46.513Z,5.27
2019-01-02T06:04:15.038Z,5.43
2019-01-02T06:06:43.544Z,6.33
2019-01-02T06:09:12.129Z,5.23
2019-01-02T06:11:40.690Z,4.97
2019-01-02T06:14:09.209Z,5.10
2019-01-02T06:16:37.787Z,5.57
2019-01-02T06:19:06.363Z,5.23
2019-01-02T06:21:34.922Z,5.80
2019-01-02T06:24:03.578Z,5.53
2019-01-02T06:26:32.150Z,5.90
2019-01-02T06:29:00.662Z,5.07
2019-01-02T06:31:29.166Z,5.60
2019-01-02T06:33:57.753Z,6.50
2019-01-02T06:36:27.157Z,5.80
2019-01-02T06:38:55.813Z,6.30
2019-01-02T06:41:24.371Z,7.43
2019-01-02T06:43:52.953Z,5.70
2019-01-02T06:46:21.456Z,5.70
2019-01-02T06:48:49.966Z,6.20
2019-01-02T06:51:18.532Z,6.50
2019-01-02T06:53:47.110Z,6.77
2019-01-02T06:56:15.676Z,7.53
2019-01-02T06:58:44.267Z,6.13
2019-01-02T07:01:12.865Z,5.30
2019-01-02T07:03:41.353Z,6.37
2019-01-02T07:06:09.863Z,6.53
2019-01-02T07:08:38.493Z,5.60
2019-01-02T07:11:07.077Z,5.67
2019-01-02T07:13:35.642Z,5.00
2019-01-02T07:16:04.402Z,8.13
2019-01-02T07:18:32.957Z,6.20
2019-01-02T07:21:01.480Z,6.00
2019-01-02T07:23:30.029Z,5.27
2019-01-02T07:25:58.538Z,5.30
2019-01-02T07:28:27.174Z,5.10
2019-01-02T07:30:55.754Z,6.40
2019-01-02T07:33:27.406Z,6.73
2019-01-02T07:36:10.562Z,4.93
2019-01-02T07:39:06.773Z,5.83
2019-01-02T07:41:44.019Z,7.33
2019-01-02T07:44:24.591Z,5.93
2019-01-02T07:47:08.115Z,5.93
2019-01-02T07:49:45.489Z,6.30
2019-01-02T07:52:20.009Z,5.43
2019-01-02T07:54:51.640Z,5.47
2019-01-02T07:57:39.778Z,6.20
2019-01-02T08:00:29.297Z,4.67
2019-01-02T08:03:20.067Z,4.03
2019-01-02T08:05:57.450Z,4.50
2019-01-02T08:08:40.917Z,5.40
2019-01-02T08:11:18.353Z,6.70
2019-01-02T08:14:07.640Z,5.63
2019-01-02T08:16:44.542Z,5.07
2019-01-02T08:19:36.890Z,5.13
2019-01-02T08:22:24.789Z,5.30
2019-01-02T08:25:08.288Z,4.97
2019-01-02T08:27:48.671Z,5.03
2019-01-02T08:30:26.049Z,4.57
2019-01-02T08:33:09.338Z,5.50
2019-01-02T08:35:52.610Z,4.80
2019-01-02T08:38:43.484Z,5.00
2019-01-02T08:41:20.721Z,5.10
2019-01-02T08:43:58.005Z,4.60
2019-01-02T08:46:38.370Z,5.50
2019-01-02T08:49:15.666Z,4.97
2019-01-02T08:51:55.801Z,4.57
2019-01-02T08:54:43.633Z,5.50
2019-01-02T08:57:17.813Z,4.90
2019-01-02T09:00:16.444Z,5.07
2019-01-02T09:02:56.837Z,5.17
2019-01-02T09:05:28.482Z,5.43
2019-01-02T09:08:05.692Z,5.03
2019-01-02T09:10:49.233Z,5.90
2019-01-02T09:13:23.617Z,5.23
2019-01-02T09:15:55.177Z,6.80
2019-01-02T09:18:35.608Z,6.27
2019-01-02T09:21:32.717Z,4.60
2019-01-02T09:24:28.289Z,6.07
2019-01-02T09:27:14.793Z,5.30
2019-01-02T09:30:11.659Z,4.70
2019-01-02T09:32:54.893Z,4.87
2019-01-02T09:35:45.860Z,5.53
2019-01-02T09:38:38.139Z,4.70
2019-01-02T09:41:12.700Z,5.70
2019-01-02T09:43:44.351Z,5.67
2019-01-02T09:46:36.686Z,5.17
2019-01-02T09:49:24.481Z,5.07
2019-01-02T09:52:01.581Z,5.73
2019-01-02T09:54:54.192Z,5.60
2019-01-02T09:57:34.602Z,5.27
2019-01-02T10:00:11.857Z,6.17
2019-01-02T10:03:08.921Z,5.73
2019-01-02T10:06:09.068Z,5.17
2019-01-02T10:08:52.609Z,5.87
2019-01-02T10:11:27.082Z,4.43
2019-01-02T10:14:13.522Z,5.47
2019-01-02T10:16:50.677Z,6.97
2019-01-02T10:19:52.374Z,6.23
2019-01-02T10:22:40.534Z,5.27
2019-01-02T10:25:41.485Z,5.33
2019-01-02T10:28:35.218Z,5.33
2019-01-02T10:31:23.149Z,5.97
2019-01-02T10:34:21.734Z,6.13
2019-01-02T10:37:01.941Z,5.13
2019-01-02T10:39:45.406Z,3.97
2019-01-02T10:42:25.958Z,4.63
2019-01-02T10:45:28.685Z,4.73
2019-01-02T10:48:12.117Z,4.17
2019-01-02T10:50:43.709Z,5.63
2019-01-02T10:53:32.930Z,4.30
2019-01-02T10:56:10.529Z,4.40
2019-01-02T10:58:51.072Z,4.27
2019-01-02T11:01:25.671Z,3.50
2019-01-02T11:04:03.175Z,3.07
2019-01-02T11:06:46.509Z,3.93
2019-01-02T11:09:18.066Z,3.60
2019-01-02T11:12:01.491Z,3.03
2019-01-02T11:14:35.681Z,3.10
2019-01-02T11:17:13.261Z,3.17
2019-01-02T11:19:47.749Z,3.63
2019-01-02T11:22:28.142Z,2.93
2019-01-02T11:25:15.873Z,3.17
2019-01-02T11:27:59.374Z,2.60
2019-01-02T11:30:42.681Z,2.67
2019-01-02T11:33:17.220Z,2.90
2019-01-02T11:35:57.717Z,2.57
2019-01-02T11:38:50.035Z,2.70
2019-01-02T11:41:30.223Z,2.37
2019-01-02T11:44:22.696Z,2.90
2019-01-02T11:46:51.268Z,2.20
2019-01-02T11:49:19.797Z,3.40
2019-01-02T11:51:48.363Z,2.40
2019-01-02T11:54:16.949Z,2.13
2019-01-02T11:56:45.602Z,2.50
2019-01-02T11:59:14.321Z,2.50
2019-01-02T12:01:42.891Z,1.87
2019-01-02T12:04:11.565Z,1.60
2019-01-02T12:06:40.118Z,1.80
2019-01-02T12:09:09.078Z,1.87
2019-01-02T12:11:37.590Z,1.93
2019-01-02T12:14:06.178Z,2.20
2019-01-02T12:16:34.730Z,2.37
2019-01-02T12:19:03.235Z,1.70
2019-01-02T12:21:31.858Z,1.70
2019-01-02T12:24:00.371Z,1.93
2019-01-02T12:26:28.949Z,1.90
2019-01-02T12:28:57.449Z,1.83
2019-01-02T12:31:25.935Z,1.80
2019-01-02T12:33:54.514Z,1.70
2019-01-02T12:36:23.073Z,2.03
2019-01-02T12:38:51.650Z,1.30
2019-01-02T12:41:20.199Z,1.57
2019-01-02T12:43:48.846Z,1.57
2019-01-02T12:46:17.347Z,1.63
2019-01-02T12:48:45.854Z,2.67
2019-01-02T12:51:14.408Z,1.60
2019-01-02T12:53:43.888Z,1.80
2019-01-02T12:56:12.531Z,1.30
2019-01-02T12:58:41.115Z,1.90
2019-01-02T13:01:11.449Z,1.73
2019-01-02T13:04:00.650Z,2.40
2019-01-02T13:06:55.894Z,1.77
2019-01-02T13:09:35.661Z,1.60
2019-01-02T13:12:13.030Z,1.77
2019-01-02T13:14:49.916Z,1.50
2019-01-02T13:17:30.379Z,1.87
2019-01-02T13:20:10.654Z,2.70
2019-01-02T13:23:00.007Z,1.90
2019-01-02T13:25:31.663Z,1.60
2019-01-02T13:28:14.849Z,2.13
2019-01-02T13:30:51.923Z,1.80
2019-01-02T13:33:45.704Z,1.43
2019-01-02T13:36:25.445Z,1.67
2019-01-02T13:38:57.082Z,1.77
2019-01-02T13:41:45.632Z,1.30
2019-01-02T13:44:17.190Z,1.80
2019-01-02T13:46:51.510Z,1.70
2019-01-02T13:49:23.790Z,1.80
2019-01-02T13:51:52.293Z,1.57
2019-01-02T13:54:20.853Z,1.97
2019-01-02T13:56:49.356Z,1.50
2019-01-02T13:59:17.877Z,1.70
2019-01-02T14:01:46.521Z,2.20
2019-01-02T14:04:15.077Z,1.70
2019-01-02T14:06:43.589Z,1.97
2019-01-02T14:09:13.855Z,1.73
2019-01-02T14:11:42.451Z,1.70
2019-01-02T14:14:11.013Z,2.27
2019-01-02T14:16:39.565Z,1.80
2019-01-02T14:19:08.069Z,1.83
2019-01-02T14:21:36.567Z,1.53
2019-01-02T14:24:05.206Z,1.70
2019-01-02T14:26:33.778Z,2.63
2019-01-02T14:29:02.378Z,1.50
2019-01-02T14:31:30.935Z,1.50
2019-01-02T14:33:59.506Z,1.40
2019-01-02T14:36:27.995Z,1.47
2019-01-02T14:38:56.581Z,1.80
2019-01-02T14:41:25.142Z,1.80
2019-01-02T14:43:53.722Z,2.17
2019-01-02T14:46:22.346Z,1.97
2019-01-02T14:48:50.909Z,1.70
2019-01-02T14:51:19.393Z,1.70
2019-01-02T14:53:47.974Z,1.77
2019-01-02T14:56:16.534Z,2.57
2019-01-02T14:58:45.029Z,1.70
2019-01-02T15:01:13.525Z,2.07
2019-01-02T15:03:42.026Z,1.87
2019-01-02T15:06:10.505Z,1.80
2019-01-02T15:08:39.010Z,2.13
2019-01-02T15:11:08.384Z,1.93
2019-01-02T15:13:36.973Z,1.60
2019-01-02T15:16:05.532Z,1.70
2019-01-02T15:18:34.095Z,1.73
2019-01-02T15:21:03.958Z,1.67
2019-01-02T15:23:32.446Z,1.60
2019-01-02T15:26:01.033Z,1.80
2019-01-02T15:28:29.523Z,1.97
2019-01-02T15:30:58.031Z,2.30
2019-01-02T15:33:26.613Z,1.73
2019-01-02T15:35:55.222Z,2.20
2019-01-02T15:38:23.771Z,2.37
2019-01-02T15:40:52.280Z,1.77
2019-01-02T15:43:20.833Z,2.33
2019-01-02T15:45:49.413Z,3.50
2019-01-02T15:48:17.917Z,3.17
2019-01-02T15:50:46.511Z,2.53
2019-01-02T15:53:15.085Z,2.73
2019-01-02T15:55:43.672Z,2.60
2019-01-02T15:58:12.224Z,2.77
2019-01-02T16:00:40.733Z,2.90
2019-01-02T16:03:09.225Z,2.87
2019-01-02T16:05:37.806Z,3.00
2019-01-02T16:08:06.284Z,2.87
2019-01-02T16:10:34.859Z,3.40
2019-01-02T16:13:03.421Z,3.77
2019-01-02T16:15:31.943Z,3.43
2019-01-02T16:18:00.505Z,3.50
2019-01-02T16:20:29.009Z,3.53
2019-01-02T16:22:57.574Z,3.47
2019-01-02T16:25:26.180Z,3.13
2019-01-02T16:27:54.735Z,3.60
2019-01-02T16:30:23.363Z,3.00
2019-01-02T16:32:51.962Z,3.30
2019-01-02T16:35:20.513Z,3.20
2019-01-02T16:37:49.035Z,3.07
2019-01-02T16:40:17.594Z,3.20
2019-01-02T16:42:46.174Z,2.77
2019-01-02T16:45:14.724Z,5.70
2019-01-02T16:47:43.233Z,3.43
2019-01-02T16:50:11.855Z,3.17
2019-01-02T16:52:40.430Z,3.07
2019-01-02T16:55:09.066Z,2.60
2019-01-02T16:57:37.644Z,2.47
2019-01-02T17:00:09.898Z,2.80
2019-01-02T17:02:38.478Z,3.17
2019-01-02T17:05:07.114Z,2.73
2019-01-02T17:07:35.682Z,3.53
2019-01-02T17:10:06.848Z,2.60
2019-01-02T17:12:35.345Z,3.00
2019-01-02T17:15:04.123Z,2.43
2019-01-02T17:17:32.696Z,2.47
2019-01-02T17:20:01.173Z,2.17
2019-01-02T17:22:29.679Z,3.07
2019-01-02T17:24:58.168Z,2.40
2019-01-02T17:27:26.690Z,4.50
2019-01-02T17:29:55.274Z,7.27
2019-01-02T17:32:23.845Z,4.20
2019-01-02T17:34:52.401Z,2.80
2019-01-02T17:37:20.963Z,3.07
2019-01-02T17:39:49.479Z,2.67
2019-01-02T17:42:18.045Z,2.90
2019-01-02T17:44:46.626Z,1.90
2019-01-02T17:47:15.182Z,3.03
2019-01-02T17:49:43.761Z,2.57
2019-01-02T17:52:12.262Z,2.20
2019-01-02T17:54:40.837Z,2.30
2019-01-02T17:57:09.398Z,2.80
2019-01-02T17:59:37.911Z,2.23
2019-01-02T18:02:06.469Z,2.93
2019-01-02T18:04:35.110Z,2.40
2019-01-02T18:07:03.601Z,2.47
2019-01-02T18:09:32.109Z,2.67
2019-01-02T18:12:00.597Z,2.90
2019-01-02T18:14:29.178Z,1.90
2019-01-02T18:16:57.741Z,2.60
2019-01-02T18:19:26.319Z,2.30
2019-01-02T18:21:54.809Z,2.70
2019-01-02T18:24:23.401Z,2.60
2019-01-02T18:26:51.885Z,2.47
2019-01-02T18:29:20.469Z,2.80
2019-01-02T18:31:48.949Z,2.70
2019-01-02T18:34:17.457Z,2.97
2019-01-02T18:36:45.956Z,2.70
2019-01-02T18:39:14.540Z,2.60
2019-01-02T18:41:43.171Z,2.87
2019-01-02T18:44:11.730Z,2.50
2019-01-02T18:46:40.305Z,3.03
2019-01-02T18:49:08.869Z,2.37
2019-01-02T18:51:37.473Z,2.70
2019-01-02T18:54:05.954Z,3.10
2019-01-02T18:56:34.534Z,2.80
2019-01-02T18:59:03.093Z,2.63
2019-01-02T19:01:31.600Z,2.60
2019-01-02T19:04:00.161Z,2.70
2019-01-02T19:06:28.733Z,3.13
2019-01-02T19:08:57.217Z,2.83
2019-01-02T19:11:25.739Z,2.70
2019-01-02T19:13:54.234Z,2.67
2019-01-02T19:16:22.733Z,3.23
2019-01-02T19:18:51.485Z,4.03
2019-01-02T19:21:20.081Z,12.20
2019-01-02T19:23:48.656Z,10.23
2019-01-02T19:26:17.241Z,8.17
2019-01-02T19:28:45.802Z,7.60
2019-01-02T19:31:14.391Z,6.77
2019-01-02T19:33:42.953Z,5.07
2019-01-02T19:36:11.545Z,3.47
2019-01-02T19:38:40.112Z,3.63
2019-01-02T19:41:08.767Z,3.77
2019-01-02T19:43:37.791Z,3.47
2019-01-02T19:46:06.360Z,2.73
2019-01-02T19:48:34.946Z,4.07
2019-01-02T19:51:03.525Z,4.80
2019-01-02T19:53:32.088Z,4.27
2019-01-02T19:56:00.589Z,4.93
2019-01-02T19:58:29.151Z,4.40
2019-01-02T20:00:57.752Z,5.13
2019-01-02T20:03:26.238Z,5.00
2019-01-02T20:05:54.814Z,5.20
2019-01-02T20:08:23.301Z,4.63
2019-01-02T20:10:51.855Z,4.47
2019-01-02T20:13:20.445Z,5.03
2019-01-02T20:15:49.026Z,4.87
2019-01-02T20:18:17.634Z,5.47
2019-01-02T20:20:46.222Z,5.10
2019-01-02T20:23:14.741Z,5.10
2019-01-02T20:25:43.296Z,5.43
2019-01-02T20:28:11.960Z,4.27
2019-01-02T20:30:40.534Z,4.73
2019-01-02T20:33:09.136Z,4.43
2019-01-02T20:35:37.698Z,5.20
2019-01-02T20:38:06.216Z,4.87
2019-01-02T20:40:34.782Z,4.40
2019-01-02T20:43:03.365Z,5.10
2019-01-02T20:45:32.043Z,6.37
2019-01-02T20:48:00.618Z,6.17
2019-01-02T20:50:29.195Z,6.03
2019-01-02T20:52:57.779Z,6.30
2019-01-02T20:55:26.341Z,5.47
2019-01-02T20:57:54.925Z,5.03
2019-01-02T21:00:23.487Z,5.60
2019-01-02T21:02:52.074Z,5.20
2019-01-02T21:05:20.561Z,5.33
2019-01-02T21:07:49.146Z,5.00
2019-01-02T21:10:17.650Z,5.07
2019-01-02T21:12:46.170Z,4.77
2019-01-02T21:15:14.739Z,5.63
2019-01-02T21:17:43.314Z,4.90
2019-01-02T21:20:11.866Z,4.30
2019-01-02T21:22:40.448Z,4.73
2019-01-02T21:25:09.361Z,4.90
2019-01-02T21:27:37.941Z,4.93
2019-01-02T21:30:08.970Z,4.87
2019-01-02T21:32:37.480Z,4.27
2019-01-02T21:35:06.202Z,4.17
2019-01-02T21:37:34.765Z,5.83
2019-01-02T21:40:04.117Z,5.50
2019-01-02T21:42:32.707Z,4.87
2019-01-02T21:45:01.288Z,6.10
2019-01-02T21:47:29.858Z,5.40
2019-01-02T21:49:58.510Z,4.40
2019-01-02T21:52:27.019Z,3.97
2019-01-02T21:54:55.592Z,4.30
2019-01-02T21:57:24.353Z,5.00
2019-01-02T21:59:53.018Z,4.80
2019-01-02T22:02:21.601Z,5.27
2019-01-02T22:04:50.187Z,5.43
2019-01-02T22:07:18.775Z,5.17
2019-01-02T22:09:47.349Z,5.23
2019-01-02T22:12:15.906Z,4.17
2019-01-02T22:14:44.504Z,5.30
2019-01-02T22:17:13.082Z,5.33
2019-01-02T22:19:41.665Z,4.93
2019-01-02T22:22:10.224Z,5.07
2019-01-02T22:24:38.781Z,5.07
2019-01-02T22:27:07.344Z,4.97
2019-01-02T22:29:35.873Z,5.63
2019-01-02T22:32:04.362Z,5.37
2019-01-02T22:34:32.943Z,4.77
2019-01-02T22:37:01.501Z,5.27
2019-01-02T22:39:30.073Z,4.97
2019-01-02T22:41:58.577Z,5.33
2019-01-02T22:44:27.150Z,5.10
2019-01-02T22:46:55.718Z,5.20
2019-01-02T22:49:24.457Z,5.47
2019-01-02T22:51:53.028Z,5.57
2019-01-02T22:54:21.609Z,5.27
2019-01-02T22:56:50.175Z,5.87
2019-01-02T22:59:18.765Z,6.23
2019-01-02T23:01:49.101Z,6.83
2019-01-02T23:04:35.508Z,5.93
2019-01-02T23:07:21.474Z,5.67
2019-01-02T23:09:51.697Z,5.80
2019-01-02T23:12:33.658Z,5.27
2019-01-02T23:15:09.576Z,6.00
2019-01-02T23:17:39.705Z,6.47
2019-01-02T23:20:15.786Z,5.00
2019-01-02T23:22:57.460Z,5.57
2019-01-02T23:25:33.178Z,6.27
2019-01-02T23:28:21.235Z,6.13
2019-01-02T23:31:07.474Z,6.00
2019-01-02T23:33:46.751Z,5.30
2019-01-02T23:36:16.977Z,5.17
2019-01-02T23:38:55.646Z,5.83
2019-01-02T23:41:37.577Z,5.57
2019-01-02T23:44:07.778Z,6.23
2019-01-02T23:46:53.127Z,5.50
2019-01-02T23:49:39.257Z,5.10
2019-01-02T23:52:27.376Z,5.20
2019-01-02T23:55:06.350Z,5.53
2019-01-02T23:57:39.326Z,6.10
